Time;durP1;ratioP1;P1;durP2;ratioP2;P2;SDS_P1;SDS_P2;PMS_P1;PMS_P2;Temp;Humidity;BMP_temperature;BMP_pressure;BME280_temperature;BME280_humidity;BME280_pressure;Samples;Min_cycle;Max_cycle;Signal;HPM_P1;HPM_P2
2024/03/24 00:03:24;;;;;;;;;;;5.40;99.90;;;;;;8377137;28;19920;-74
2024/03/24 00:07:25;;;;;;;;;;;5.40;99.90;;;;;;8372372;28;19970;-73
2024/03/24 00:11:25;;;;;;;;;;;5.40;99.90;;;;;;8376569;28;20017;-74
2024/03/24 00:15:27;;;;;;;;;;;5.50;99.90;;;;;;8374164;28;19920;-74
2024/03/24 00:19:27;;;;;;;;;;;5.50;99.90;;;;;;8361393;28;19942;-73
2024/03/24 00:23:28;;;;;;;;;;;5.50;99.90;;;;;;8377775;28;19920;-74
2024/03/24 00:27:29;;;;;;;;;;;5.50;99.90;;;;;;8374075;28;19928;-74
2024/03/24 00:31:30;;;;;;;;;;;5.50;99.90;;;;;;8359091;28;19928;-74
2024/03/24 00:35:31;;;;;;;;;;;5.50;99.90;;;;;;8365151;28;19947;-74
2024/03/24 00:39:31;;;;;;;;;;;5.50;99.90;;;;;;8375861;28;20394;-73
2024/03/24 00:43:32;;;;;;;;;;;5.50;99.90;;;;;;8365951;28;19920;-74
2024/03/24 00:47:33;;;;;;;;;;;5.50;99.90;;;;;;8376568;28;20357;-74
2024/03/24 00:51:34;;;;;;;;;;;5.50;99.90;;;;;;8383096;28;20349;-74
2024/03/24 00:55:35;;;;;;;;;;;5.50;99.90;;;;;;8376435;28;20021;-74
2024/03/24 00:59:35;;;;;;;;;;;5.60;99.90;;;;;;8392070;28;19983;-73
2024/03/24 01:03:36;;;;;;;;;;;5.60;99.90;;;;;;8370796;28;20010;-73
2024/03/24 01:07:37;;;;;;;;;;;5.60;99.90;;;;;;8381783;28;19979;-73
2024/03/24 01:11:38;;;;;;;;;;;5.60;99.90;;;;;;8386481;28;19929;-74
2024/03/24 01:15:42;;;;;;;;;;;5.60;99.90;;;;;;8377167;28;20347;-74
2024/03/24 01:19:43;;;;;;;;;;;5.70;99.90;;;;;;8364544;28;19924;-74
2024/03/24 01:23:44;;;;;;;;;;;5.70;99.90;;;;;;8382391;28;19989;-73
2024/03/24 01:27:45;;;;;;;;;;;5.70;99.90;;;;;;8383192;28;19919;-74
2024/03/24 01:31:46;;;;;;;;;;;5.70;99.90;;;;;;8382797;28;19928;-73
2024/03/24 01:35:47;;;;;;;;;;;5.70;99.90;;;;;;8381068;28;20264;-73
2024/03/24 01:39:49;;;;;;;;;;;5.80;99.90;;;;;;8385345;28;19942;-74
2024/03/24 01:43:50;;;;;;;;;;;5.80;99.90;;;;;;8373771;28;19934;-74
2024/03/24 01:47:51;;;;;;;;;;;5.90;99.90;;;;;;8374427;28;19921;-73
2024/03/24 01:51:52;;;;;;;;;;;5.90;99.90;;;;;;8379075;28;19921;-74
2024/03/24 01:55:53;;;;;;;;;;;5.90;99.90;;;;;;8375492;28;20360;-73
2024/03/24 01:59:54;;;;;;;;;;;6.00;99.90;;;;;;8378306;28;19924;-73
2024/03/24 02:03:55;;;;;;;;;;;6.00;99.90;;;;;;8383060;28;20008;-74
2024/03/24 02:07:55;;;;;;;;;;;6.00;99.90;;;;;;8379255;28;19971;-74
2024/03/24 02:11:56;;;;;;;;;;;6.00;99.90;;;;;;8375892;28;19932;-74
2024/03/24 02:15:57;;;;;;;;;;;5.90;99.90;;;;;;8389742;28;19924;-74
2024/03/24 02:19:58;;;;;;;;;;;5.80;99.90;;;;;;8376822;28;19935;-74
2024/03/24 02:23:59;;;;;;;;;;;5.80;99.90;;;;;;8376057;28;19978;-74
2024/03/24 02:28:00;;;;;;;;;;;5.80;99.90;;;;;;8379247;28;20394;-74
2024/03/24 02:32:00;;;;;;;;;;;5.80;99.90;;;;;;8382209;28;20243;-74
2024/03/24 02:36:02;;;;;;;;;;;5.80;99.90;;;;;;8375324;28;20387;-75
2024/03/24 02:40:08;;;;;;;;;;;5.90;99.90;;;;;;8390471;28;19924;-74
2024/03/24 02:44:09;;;;;;;;;;;5.90;99.90;;;;;;8400855;28;19928;-75
2024/03/24 02:48:10;;;;;;;;;;;5.90;99.90;;;;;;8397189;28;19920;-74
2024/03/24 02:52:11;;;;;;;;;;;5.90;99.90;;;;;;8360455;28;19997;-74
2024/03/24 02:56:12;;;;;;;;;;;5.90;99.90;;;;;;8385209;28;19921;-75
2024/03/24 03:00:13;;;;;;;;;;;5.90;99.90;;;;;;8377941;28;20402;-75
2024/03/24 03:04:14;;;;;;;;;;;5.90;99.90;;;;;;8377638;28;19936;-75
2024/03/24 03:08:14;;;;;;;;;;;6.00;99.90;;;;;;8391521;28;19928;-75
2024/03/24 03:12:15;;;;;;;;;;;6.00;99.90;;;;;;8379360;28;19986;-75
2024/03/24 03:16:16;;;;;;;;;;;6.10;99.90;;;;;;8373713;28;19975;-74
2024/03/24 03:20:18;;;;;;;;;;;6.10;99.90;;;;;;8369478;28;19928;-74
2024/03/24 03:24:18;;;;;;;;;;;6.10;99.90;;;;;;8386345;28;20280;-75
2024/03/24 03:28:19;;;;;;;;;;;6.20;99.90;;;;;;8378003;28;19924;-75
2024/03/24 03:32:20;;;;;;;;;;;6.20;99.90;;;;;;8365568;28;20132;-74
2024/03/24 03:36:21;;;;;;;;;;;6.30;99.90;;;;;;8370867;28;19924;-74
2024/03/24 03:40:22;;;;;;;;;;;6.20;99.90;;;;;;8381108;28;20069;-74
2024/03/24 03:44:22;;;;;;;;;;;5.90;99.90;;;;;;8373915;28;20014;-75
2024/03/24 03:48:23;;;;;;;;;;;5.70;99.90;;;;;;8376992;28;19920;-74
2024/03/24 03:52:31;;;;;;;;;;;5.50;99.90;;;;;;8375413;28;19934;-74
2024/03/24 03:56:32;;;;;;;;;;;5.40;99.90;;;;;;8356756;28;19920;-74
2024/03/24 04:00:33;;;;;;;;;;;5.30;99.90;;;;;;8384436;28;19928;-75
2024/03/24 04:04:33;;;;;;;;;;;5.30;99.90;;;;;;8383944;28;19928;-74
2024/03/24 04:08:34;;;;;;;;;;;5.30;99.90;;;;;;8374056;28;19927;-75
2024/03/24 04:12:36;;;;;;;;;;;5.30;99.90;;;;;;8377535;28;19927;-74
2024/03/24 04:16:39;;;;;;;;;;;5.20;99.90;;;;;;8368786;28;20395;-74
2024/03/24 04:20:40;;;;;;;;;;;5.20;99.90;;;;;;8375327;28;19927;-74
2024/03/24 04:24:40;;;;;;;;;;;5.20;99.90;;;;;;8381293;28;19967;-74
2024/03/24 04:28:41;;;;;;;;;;;5.20;99.90;;;;;;8364448;28;20045;-74
2024/03/24 04:32:42;;;;;;;;;;;5.20;99.90;;;;;;8383572;28;19931;-74
2024/03/24 04:36:43;;;;;;;;;;;5.20;99.90;;;;;;8380591;28;20387;-74
2024/03/24 04:40:44;;;;;;;;;;;5.20;99.90;;;;;;8380137;28;20286;-74
2024/03/24 04:44:45;;;;;;;;;;;5.20;99.90;;;;;;8392900;28;19932;-73
2024/03/24 04:48:46;;;;;;;;;;;5.20;99.90;;;;;;8380055;28;20029;-74
2024/03/24 04:52:47;;;;;;;;;;;5.20;99.90;;;;;;8375650;28;19966;-74
2024/03/24 04:56:48;;;;;;;;;;;5.10;99.90;;;;;;8375655;28;20373;-74
2024/03/24 05:00:49;;;;;;;;;;;5.10;99.90;;;;;;8365714;28;19924;-74
2024/03/24 05:04:50;;;;;;;;;;;5.10;99.90;;;;;;8406447;28;19919;-74
2024/03/24 05:08:53;;;;;;;;;;;5.10;99.90;;;;;;8385805;28;19928;-75
2024/03/24 05:12:54;;;;;;;;;;;5.10;99.90;;;;;;8402807;28;19942;-74
2024/03/24 05:16:55;;;;;;;;;;;5.10;99.90;;;;;;8392063;28;19928;-75
2024/03/24 05:20:55;;;;;;;;;;;5.10;99.90;;;;;;8405634;28;19928;-75
2024/03/24 05:24:57;;;;;;;;;;;5.20;99.90;;;;;;8394530;28;19955;-75
2024/03/24 05:29:00;;;;;;;;;;;5.20;99.90;;;;;;8407640;28;19920;-75
2024/03/24 05:33:00;;;;;;;;;;;5.20;99.90;;;;;;8406502;28;19953;-75
2024/03/24 05:37:01;;;;;;;;;;;5.20;99.90;;;;;;8410259;28;20022;-75
2024/03/24 05:41:06;;;;;;;;;;;5.20;99.90;;;;;;8407221;28;19959;-75
2024/03/24 05:45:08;;;;;;;;;;;5.20;99.90;;;;;;8382920;28;19927;-73
2024/03/24 05:49:10;;;;;;;;;;;5.10;99.90;;;;;;8405834;28;19968;-75
2024/03/24 05:53:10;;;;;;;;;;;5.00;99.90;;;;;;8411685;28;19920;-75
2024/03/24 05:57:13;;;;;;;;;;;5.00;99.90;;;;;;8402185;28;19920;-74
2024/03/24 06:01:14;;;;;;;;;;;4.90;99.90;;;;;;8392677;28;20015;-73
2024/03/24 06:05:15;;;;;;;;;;;4.90;99.90;;;;;;8407398;28;20409;-73
2024/03/24 06:09:17;;;;;;;;;;;4.90;99.90;;;;;;8405060;28;19941;-74
2024/03/24 06:13:18;;;;;;;;;;;4.90;99.90;;;;;;8407605;28;20054;-74
2024/03/24 06:17:19;;;;;;;;;;;4.90;99.90;;;;;;8403737;28;19928;-75
2024/03/24 06:21:20;;;;;;;;;;;4.90;99.90;;;;;;8392589;28;20014;-74
2024/03/24 06:25:21;;;;;;;;;;;4.90;99.90;;;;;;8406323;28;19935;-73
2024/03/24 06:29:22;;;;;;;;;;;4.90;99.90;;;;;;8404626;28;19927;-75
2024/03/24 06:33:23;;;;;;;;;;;4.90;99.90;;;;;;8407260;28;19968;-75
2024/03/24 06:37:24;;;;;;;;;;;4.90;99.90;;;;;;8387138;28;20032;-75
2024/03/24 06:41:26;;;;;;;;;;;4.90;99.90;;;;;;8398029;28;20004;-75
2024/03/24 06:45:31;;;;;;;;;;;4.90;99.90;;;;;;8405346;28;19923;-75
2024/03/24 06:49:32;;;;;;;;;;;5.00;99.90;;;;;;8400952;28;19920;-75
2024/03/24 06:54:04;;;;;;;;;;;5.00;99.90;;;;;;8406692;28;20003;-75
2024/03/24 06:58:05;;;;;;;;;;;5.10;99.90;;;;;;8403141;28;20036;-75
2024/03/24 07:02:06;;;;;;;;;;;5.20;99.90;;;;;;8408619;28;20011;-75
2024/03/24 07:06:06;;;;;;;;;;;5.40;99.90;;;;;;8408301;28;20359;-75
2024/03/24 07:10:08;;;;;;;;;;;5.50;99.90;;;;;;8406043;28;19920;-75
2024/03/24 07:14:08;;;;;;;;;;;5.70;99.90;;;;;;8388802;28;19924;-75
2024/03/24 07:18:09;;;;;;;;;;;5.70;99.90;;;;;;8407878;28;20355;-74
2024/03/24 07:22:10;;;;;;;;;;;5.80;99.90;;;;;;8410662;28;19928;-75
2024/03/24 07:26:11;;;;;;;;;;;5.80;99.90;;;;;;8407340;28;19920;-75
2024/03/24 07:30:12;;;;;;;;;;;5.80;99.90;;;;;;8401935;28;20011;-74
2024/03/24 07:39:17;;;;;;;;;;;5.90;99.90;;;;;;8423061;28;19915;-74
2024/03/24 07:43:17;;;;;;;;;;;6.00;99.90;;;;;;8375529;28;19964;-75
2024/03/24 07:47:24;;;;;;;;;;;6.10;99.90;;;;;;8381240;28;19931;-75
2024/03/24 07:51:26;;;;;;;;;;;6.10;99.90;;;;;;8402789;28;20366;-74
2024/03/24 07:55:27;;;;;;;;;;;6.20;99.90;;;;;;8382570;28;19924;-75
2024/03/24 07:59:28;;;;;;;;;;;6.30;99.90;;;;;;8409316;28;19971;-74
2024/03/24 08:03:28;;;;;;;;;;;6.30;99.90;;;;;;8412937;28;19920;-74
2024/03/24 08:07:29;;;;;;;;;;;6.30;99.90;;;;;;8411737;28;19924;-74
2024/03/24 08:11:30;;;;;;;;;;;6.30;99.90;;;;;;8402062;28;20279;-75
2024/03/24 08:15:31;;;;;;;;;;;6.20;99.90;;;;;;8402142;28;19955;-75
2024/03/24 08:19:32;;;;;;;;;;;6.00;99.90;;;;;;8412460;28;19923;-74
2024/03/24 08:23:33;;;;;;;;;;;6.00;99.90;;;;;;8408005;28;19994;-75
2024/03/24 08:27:34;;;;;;;;;;;6.00;99.90;;;;;;8396780;28;19927;-75
2024/03/24 08:31:35;;;;;;;;;;;6.10;99.90;;;;;;8380638;28;19927;-74
2024/03/24 08:35:36;;;;;;;;;;;6.20;99.90;;;;;;8387063;28;20038;-75
2024/03/24 08:39:37;;;;;;;;;;;6.30;99.90;;;;;;8390494;28;20022;-75
2024/03/24 08:43:38;;;;;;;;;;;6.30;99.90;;;;;;8398932;28;19920;-75
2024/03/24 08:47:39;;;;;;;;;;;6.30;99.90;;;;;;8407351;28;20010;-74
2024/03/24 08:51:42;;;;;;;;;;;6.20;99.90;;;;;;8414387;28;19927;-75
2024/03/24 08:55:43;;;;;;;;;;;5.90;99.90;;;;;;8405746;28;20374;-74
2024/03/24 08:59:43;;;;;;;;;;;5.70;99.90;;;;;;8404351;28;19981;-75
2024/03/24 09:03:44;;;;;;;;;;;5.80;99.90;;;;;;8407703;28;19931;-75
2024/03/24 09:07:45;;;;;;;;;;;6.00;99.90;;;;;;8403912;28;20314;-75
2024/03/24 09:11:46;;;;;;;;;;;6.20;99.90;;;;;;8378726;28;19920;-74
2024/03/24 09:15:47;;;;;;;;;;;6.30;99.90;;;;;;8397005;28;19926;-74
2024/03/24 09:19:48;;;;;;;;;;;6.30;99.90;;;;;;8396031;28;20015;-74
2024/03/24 09:23:49;;;;;;;;;;;6.10;99.90;;;;;;8383920;28;19920;-74
2024/03/24 09:27:50;;;;;;;;;;;5.90;99.90;;;;;;8398022;28;19920;-74
2024/03/24 09:31:51;;;;;;;;;;;5.90;99.90;;;;;;8405615;28;20010;-75
2024/03/24 09:35:53;;;;;;;;;;;6.00;99.90;;;;;;8402111;28;20358;-74
2024/03/24 09:39:53;;;;;;;;;;;6.00;99.90;;;;;;8396487;28;20007;-74
2024/03/24 09:43:54;;;;;;;;;;;6.10;99.90;;;;;;8383886;28;20686;-75
2024/03/24 09:47:57;;;;;;;;;;;6.30;99.90;;;;;;8401290;28;19920;-74
2024/03/24 09:52:00;;;;;;;;;;;6.40;99.90;;;;;;8388117;28;20011;-74
2024/03/24 09:56:02;;;;;;;;;;;6.60;99.90;;;;;;8395873;28;19920;-74
2024/03/24 10:00:06;;;;;;;;;;;6.70;99.90;;;;;;8382642;28;20007;-74
2024/03/24 10:04:07;;;;;;;;;;;6.70;99.90;;;;;;8400609;28;20007;-74
2024/03/24 10:08:10;;;;;;;;;;;6.60;99.90;;;;;;8392000;28;19924;-74
2024/03/24 10:12:11;;;;;;;;;;;6.60;99.90;;;;;;8380613;28;19927;-74
2024/03/24 10:16:15;;;;;;;;;;;6.50;99.90;;;;;;8387304;28;19926;-75
2024/03/24 10:20:16;;;;;;;;;;;6.50;99.90;;;;;;8408624;28;20006;-74
2024/03/24 10:24:17;;;;;;;;;;;6.50;99.90;;;;;;8408963;28;19920;-75
2024/03/24 10:28:18;;;;;;;;;;;6.60;99.90;;;;;;8403788;28;19927;-74
2024/03/24 10:32:19;;;;;;;;;;;6.70;99.90;;;;;;8408334;28;20401;-74
2024/03/24 10:36:19;;;;;;;;;;;6.80;99.90;;;;;;8410081;28;20390;-74
2024/03/24 10:40:21;;;;;;;;;;;6.90;99.90;;;;;;8388085;28;21479;-75
2024/03/24 10:44:25;;;;;;;;;;;7.00;99.90;;;;;;8386058;28;20011;-74
2024/03/24 10:48:25;;;;;;;;;;;7.00;99.90;;;;;;8407897;28;20016;-75
2024/03/24 10:52:29;;;;;;;;;;;7.00;99.90;;;;;;8404640;28;19924;-74
2024/03/24 10:56:34;;;;;;;;;;;7.00;99.90;;;;;;8388273;28;19926;-74
2024/03/24 11:00:35;;;;;;;;;;;7.00;99.90;;;;;;8407126;28;20089;-75
2024/03/24 11:04:35;;;;;;;;;;;7.00;99.90;;;;;;8384400;28;20394;-74
2024/03/24 11:08:36;;;;;;;;;;;7.10;99.90;;;;;;8405645;28;20322;-75
2024/03/24 11:12:38;;;;;;;;;;;7.10;99.90;;;;;;8401311;28;19988;-75
2024/03/24 11:16:40;;;;;;;;;;;7.20;99.90;;;;;;8402954;28;20013;-75
2024/03/24 11:20:41;;;;;;;;;;;7.20;99.90;;;;;;8405913;28;20873;-75
2024/03/24 11:24:42;;;;;;;;;;;7.20;99.90;;;;;;8402345;28;19931;-75
2024/03/24 11:28:43;;;;;;;;;;;7.30;99.90;;;;;;8388337;28;19942;-74
2024/03/24 11:32:57;;;;;;;;;;;7.30;99.90;;;;;;8405449;28;19981;-74
2024/03/24 11:36:57;;;;;;;;;;;7.30;99.90;;;;;;8378884;28;20545;-75
2024/03/24 11:40:58;;;;;;;;;;;7.10;99.90;;;;;;8359884;28;19966;-75
2024/03/24 11:45:18;;;;;;;;;;;7.00;99.90;;;;;;8379550;28;19920;-75
2024/03/24 11:49:19;;;;;;;;;;;7.10;99.90;;;;;;8396868;28;19932;-75
2024/03/24 11:53:22;;;;;;;;;;;7.20;99.90;;;;;;8392633;28;19974;-75
2024/03/24 11:57:24;;;;;;;;;;;7.20;99.90;;;;;;8404950;28;19925;-75
2024/03/24 12:01:25;;;;;;;;;;;7.20;99.90;;;;;;8373261;28;20550;-74
2024/03/24 12:05:26;;;;;;;;;;;7.40;99.90;;;;;;8374938;28;20136;-74
2024/03/24 12:09:28;;;;;;;;;;;7.80;99.90;;;;;;8393594;28;19974;-74
2024/03/24 12:13:29;;;;;;;;;;;8.30;99.90;;;;;;8392174;28;20268;-75
2024/03/24 12:17:30;;;;;;;;;;;8.60;99.90;;;;;;8403513;28;20591;-74
2024/03/24 12:21:31;;;;;;;;;;;8.50;99.90;;;;;;8382914;28;19947;-75
2024/03/24 12:25:32;;;;;;;;;;;8.50;99.90;;;;;;8388486;28;19921;-74
2024/03/24 12:29:33;;;;;;;;;;;8.90;99.90;;;;;;8379391;28;19923;-74
2024/03/24 12:33:34;;;;;;;;;;;9.30;99.90;;;;;;8401612;28;19920;-75
2024/03/24 12:37:35;;;;;;;;;;;9.50;99.90;;;;;;8376437;28;20405;-75
2024/03/24 12:41:36;;;;;;;;;;;9.30;99.90;;;;;;8368278;28;19920;-75
2024/03/24 12:45:37;;;;;;;;;;;8.80;99.90;;;;;;8398678;28;20010;-74
2024/03/24 12:49:38;;;;;;;;;;;8.20;99.90;;;;;;8401919;28;19973;-75
2024/03/24 12:53:53;;;;;;;;;;;8.10;99.90;;;;;;8397556;28;19924;-75
2024/03/24 12:57:55;;;;;;;;;;;8.20;99.90;;;;;;8404727;28;20430;-74
2024/03/24 13:01:56;;;;;;;;;;;8.50;99.90;;;;;;8400892;28;19924;-74
2024/03/24 13:05:58;;;;;;;;;;;8.50;99.90;;;;;;8400269;28;20462;-75
2024/03/24 13:09:59;;;;;;;;;;;8.60;99.90;;;;;;8407341;28;20355;-74
2024/03/24 13:14:02;;;;;;;;;;;8.70;99.90;;;;;;8402201;28;20011;-75
2024/03/24 13:18:09;;;;;;;;;;;8.70;99.90;;;;;;8378908;28;20039;-75
2024/03/24 13:22:10;;;;;;;;;;;8.40;99.90;;;;;;8403807;28;20053;-74
2024/03/24 13:26:14;;;;;;;;;;;8.40;99.90;;;;;;8381234;28;20016;-74
2024/03/24 13:30:14;;;;;;;;;;;8.60;99.90;;;;;;8401108;28;20286;-75
2024/03/24 13:34:15;;;;;;;;;;;9.00;99.90;;;;;;8408751;28;20045;-74
2024/03/24 13:38:24;;;;;;;;;;;8.90;99.90;;;;;;8385168;28;19928;-75
2024/03/24 13:42:25;;;;;;;;;;;8.50;99.90;;;;;;8410603;28;19924;-75
2024/03/24 13:46:28;;;;;;;;;;;8.10;99.90;;;;;;8386721;28;19920;-74
2024/03/24 13:50:31;;;;;;;;;;;7.80;99.90;;;;;;8403602;28;19926;-74
2024/03/24 13:54:35;;;;;;;;;;;7.60;99.90;;;;;;8401111;28;19924;-75
2024/03/24 13:58:35;;;;;;;;;;;7.80;99.90;;;;;;8406873;28;19936;-74
2024/03/24 14:02:36;;;;;;;;;;;8.10;99.90;;;;;;8403841;28;19920;-74
2024/03/24 14:06:37;;;;;;;;;;;8.10;99.90;;;;;;8400063;28;19920;-74
2024/03/24 14:10:38;;;;;;;;;;;8.10;99.90;;;;;;8385308;28;20441;-74
2024/03/24 14:14:41;;;;;;;;;;;8.20;99.90;;;;;;8399160;28;19924;-75
2024/03/24 14:18:48;;;;;;;;;;;8.30;99.90;;;;;;8403294;28;19923;-75
2024/03/24 14:22:53;;;;;;;;;;;8.10;99.90;;;;;;8391992;28;19924;-74
2024/03/24 14:26:54;;;;;;;;;;;7.90;99.90;;;;;;8397037;28;19932;-74
2024/03/24 14:30:55;;;;;;;;;;;7.70;99.90;;;;;;8401457;28;19928;-74
2024/03/24 14:34:56;;;;;;;;;;;7.60;99.90;;;;;;8385732;28;20446;-74
2024/03/24 14:38:57;;;;;;;;;;;7.40;99.90;;;;;;8386697;28;20384;-74
2024/03/24 14:42:58;;;;;;;;;;;7.30;99.90;;;;;;8389938;28;20281;-74
2024/03/24 14:47:05;;;;;;;;;;;7.30;99.90;;;;;;8397483;28;19924;-74
2024/03/24 14:51:06;;;;;;;;;;;7.50;99.90;;;;;;8390969;28;19921;-74
2024/03/24 14:55:07;;;;;;;;;;;7.70;99.90;;;;;;8394893;28;19920;-74
2024/03/24 14:59:08;;;;;;;;;;;7.70;99.90;;;;;;8401155;28;19928;-74
2024/03/24 15:03:09;;;;;;;;;;;7.70;99.90;;;;;;8392964;28;19924;-74
2024/03/24 15:07:12;;;;;;;;;;;7.70;99.90;;;;;;8402082;28;19926;-74
2024/03/24 15:11:13;;;;;;;;;;;7.60;99.90;;;;;;8402035;28;19974;-74
2024/03/24 15:15:14;;;;;;;;;;;7.60;99.90;;;;;;8406697;28;20035;-74
2024/03/24 15:19:15;;;;;;;;;;;7.90;99.90;;;;;;8405054;28;20011;-74
2024/03/24 15:23:16;;;;;;;;;;;7.90;99.90;;;;;;8389070;28;19941;-75
2024/03/24 15:27:17;;;;;;;;;;;7.80;99.90;;;;;;8403048;28;19924;-74
2024/03/24 15:31:17;;;;;;;;;;;7.60;99.90;;;;;;8384530;28;19920;-74
2024/03/24 15:35:19;;;;;;;;;;;7.50;99.90;;;;;;8401382;28;19927;-75
2024/03/24 15:39:19;;;;;;;;;;;7.40;99.90;;;;;;8385887;28;20365;-74
2024/03/24 15:43:21;;;;;;;;;;;7.50;99.90;;;;;;8384332;28;19999;-74
2024/03/24 15:47:22;;;;;;;;;;;7.60;99.90;;;;;;8400536;28;20085;-75
2024/03/24 15:51:23;;;;;;;;;;;7.60;99.90;;;;;;8402791;28;19924;-74
2024/03/24 15:55:25;;;;;;;;;;;7.50;99.90;;;;;;8402114;28;19928;-74
2024/03/24 15:59:38;;;;;;;;;;;7.50;99.90;;;;;;8401205;28;19927;-75
2024/03/24 16:03:39;;;;;;;;;;;7.60;99.90;;;;;;8403695;28;20002;-74
2024/03/24 16:07:42;;;;;;;;;;;7.80;99.90;;;;;;8401281;28;19942;-74
2024/03/24 16:11:46;;;;;;;;;;;7.90;99.90;;;;;;8400443;28;19930;-74
2024/03/24 16:15:47;;;;;;;;;;;8.00;99.90;;;;;;8399921;28;19926;-75
2024/03/24 16:19:49;;;;;;;;;;;8.00;99.90;;;;;;8392530;28;20362;-74
2024/03/24 16:23:50;;;;;;;;;;;8.00;99.90;;;;;;8405311;28;19928;-74
2024/03/24 16:27:52;;;;;;;;;;;7.90;99.90;;;;;;8410386;28;20454;-74
2024/03/24 16:31:53;;;;;;;;;;;7.80;99.90;;;;;;8408832;28;19981;-74
2024/03/24 16:35:57;;;;;;;;;;;7.80;99.90;;;;;;8411169;28;19920;-75
2024/03/24 16:39:57;;;;;;;;;;;8.10;99.90;;;;;;8404604;28;20002;-75
2024/03/24 16:43:59;;;;;;;;;;;8.60;99.90;;;;;;8376138;28;20019;-75
2024/03/24 16:48:01;;;;;;;;;;;9.00;99.90;;;;;;8371621;28;19934;-74
2024/03/24 16:52:03;;;;;;;;;;;9.20;99.90;;;;;;8382774;28;19928;-74
2024/03/24 16:56:04;;;;;;;;;;;9.40;99.90;;;;;;8385115;28;19924;-75
2024/03/24 17:00:06;;;;;;;;;;;9.10;99.90;;;;;;8377861;28;19951;-74
2024/03/24 17:04:07;;;;;;;;;;;8.70;99.90;;;;;;8372779;28;19941;-75
2024/03/24 17:08:07;;;;;;;;;;;8.40;99.90;;;;;;8389538;28;19929;-75
2024/03/24 17:12:08;;;;;;;;;;;8.20;99.90;;;;;;8391323;28;19969;-74
2024/03/24 17:16:09;;;;;;;;;;;8.10;99.90;;;;;;8374667;28;19981;-74
2024/03/24 17:20:10;;;;;;;;;;;8.00;99.90;;;;;;8370207;28;19924;-75
2024/03/24 17:24:11;;;;;;;;;;;8.00;99.90;;;;;;8379188;28;19931;-75
2024/03/24 17:28:12;;;;;;;;;;;8.00;99.90;;;;;;8382714;28;19920;-74
2024/03/24 17:32:15;;;;;;;;;;;8.00;99.90;;;;;;8390097;28;19924;-75
2024/03/24 17:36:15;;;;;;;;;;;8.00;99.90;;;;;;8374724;28;19924;-74
2024/03/24 17:40:16;;;;;;;;;;;8.00;99.90;;;;;;8384736;28;19934;-74
2024/03/24 17:44:17;;;;;;;;;;;7.90;99.90;;;;;;8417562;28;19946;-74
2024/03/24 17:48:18;;;;;;;;;;;7.90;99.90;;;;;;8379849;28;19958;-74
2024/03/24 17:52:18;;;;;;;;;;;7.90;99.90;;;;;;8395374;28;19969;-75
2024/03/24 17:56:20;;;;;;;;;;;7.80;99.90;;;;;;8380892;28;19924;-74
2024/03/24 18:00:21;;;;;;;;;;;7.80;99.90;;;;;;8391577;28;19920;-74
2024/03/24 18:04:22;;;;;;;;;;;7.70;99.90;;;;;;8391624;28;19935;-74
2024/03/24 18:12:42;;;;;;;;;;;7.60;99.90;;;;;;8388974;28;19930;-75
2024/03/24 18:16:43;;;;;;;;;;;7.50;99.90;;;;;;8386001;28;20397;-74
2024/03/24 18:20:46;;;;;;;;;;;7.40;99.90;;;;;;8363712;28;19929;-75
2024/03/24 18:24:47;;;;;;;;;;;7.40;99.90;;;;;;8376366;28;19924;-75
2024/03/24 18:28:48;;;;;;;;;;;7.30;99.90;;;;;;8373962;28;20160;-75
2024/03/24 18:32:53;;;;;;;;;;;7.30;99.90;;;;;;8360564;28;19981;-75
2024/03/24 18:36:55;;;;;;;;;;;7.30;99.90;;;;;;8391815;28;19921;-75
2024/03/24 18:40:56;;;;;;;;;;;7.40;99.90;;;;;;8375033;28;19928;-75
2024/03/24 18:44:58;;;;;;;;;;;7.40;99.90;;;;;;8373247;28;19920;-75
2024/03/24 18:48:59;;;;;;;;;;;7.40;99.90;;;;;;8379018;28;20030;-75
2024/03/24 18:53:02;;;;;;;;;;;7.30;99.90;;;;;;8410776;28;19920;-75
2024/03/24 18:57:03;;;;;;;;;;;7.20;99.90;;;;;;8359745;28;19923;-75
2024/03/24 19:01:03;;;;;;;;;;;7.10;99.90;;;;;;8371225;28;20024;-74
2024/03/24 19:05:05;;;;;;;;;;;7.00;99.90;;;;;;8374345;28;19924;-75
2024/03/24 19:09:08;;;;;;;;;;;7.00;99.90;;;;;;8384974;28;19928;-75
2024/03/24 19:13:08;;;;;;;;;;;6.90;99.90;;;;;;8369056;28;19931;-75
2024/03/24 19:17:09;;;;;;;;;;;6.90;99.90;;;;;;8377038;28;20018;-74
2024/03/24 19:21:11;;;;;;;;;;;6.80;99.90;;;;;;8381364;28;19928;-75
2024/03/24 19:25:12;;;;;;;;;;;6.80;99.90;;;;;;8379749;28;19946;-75
2024/03/24 19:29:13;;;;;;;;;;;6.80;99.90;;;;;;8408063;28;19928;-75
2024/03/24 19:33:14;;;;;;;;;;;6.70;99.90;;;;;;8370460;28;20389;-75
2024/03/24 19:37:23;;;;;;;;;;;6.70;99.90;;;;;;8390424;28;19943;-75
2024/03/24 19:41:23;;;;;;;;;;;6.60;99.90;;;;;;8381990;28;19935;-75
2024/03/24 19:45:24;;;;;;;;;;;6.60;99.90;;;;;;8366831;28;20002;-75
2024/03/24 19:49:25;;;;;;;;;;;6.60;99.90;;;;;;8378683;28;20050;-74
2024/03/24 19:53:26;;;;;;;;;;;6.60;99.90;;;;;;8385559;28;20025;-74
2024/03/24 19:57:27;;;;;;;;;;;6.60;99.90;;;;;;8384997;28;19920;-75
2024/03/24 20:01:28;;;;;;;;;;;6.60;99.90;;;;;;8385885;28;19973;-75
2024/03/24 20:05:29;;;;;;;;;;;6.70;99.90;;;;;;8383239;28;20381;-75
2024/03/24 20:09:29;;;;;;;;;;;6.70;99.90;;;;;;8382740;28;19978;-75
2024/03/24 20:13:31;;;;;;;;;;;6.60;99.90;;;;;;8388350;28;20380;-75
2024/03/24 20:17:32;;;;;;;;;;;6.60;99.90;;;;;;8396761;28;19924;-75
2024/03/24 20:21:33;;;;;;;;;;;6.50;99.90;;;;;;8368126;28;19956;-75
2024/03/24 20:25:34;;;;;;;;;;;6.40;99.90;;;;;;8384830;28;19935;-75
2024/03/24 20:29:35;;;;;;;;;;;6.30;99.90;;;;;;8420086;28;19935;-75
2024/03/24 20:33:35;;;;;;;;;;;6.30;99.90;;;;;;8373226;28;19928;-75
2024/03/24 20:37:36;;;;;;;;;;;6.20;99.90;;;;;;8380826;28;20315;-75
2024/03/24 20:41:37;;;;;;;;;;;6.20;99.90;;;;;;8381814;28;19925;-75
2024/03/24 20:45:38;;;;;;;;;;;6.10;99.90;;;;;;8381712;28;19924;-75
2024/03/24 20:49:39;;;;;;;;;;;6.00;99.90;;;;;;8380526;28;20306;-75
2024/03/24 20:53:40;;;;;;;;;;;6.00;99.90;;;;;;8391167;28;19919;-75
2024/03/24 20:57:41;;;;;;;;;;;5.90;99.90;;;;;;8380683;28;20410;-75
2024/03/24 21:01:42;;;;;;;;;;;5.80;99.90;;;;;;8408812;28;19973;-75
2024/03/24 21:05:43;;;;;;;;;;;5.80;99.90;;;;;;8385967;28;19924;-75
2024/03/24 21:09:44;;;;;;;;;;;5.80;99.90;;;;;;8382090;28;19925;-75
2024/03/24 21:13:48;;;;;;;;;;;5.80;99.90;;;;;;8363824;28;19920;-75
2024/03/24 21:17:49;;;;;;;;;;;5.90;99.90;;;;;;8386754;28;19924;-74
2024/03/24 21:21:51;;;;;;;;;;;5.90;99.90;;;;;;8414188;28;19928;-75
2024/03/24 21:25:51;;;;;;;;;;;6.00;99.90;;;;;;8395469;28;20296;-74
2024/03/24 21:29:52;;;;;;;;;;;6.10;99.90;;;;;;8375990;28;20734;-74
2024/03/24 21:33:53;;;;;;;;;;;6.10;99.90;;;;;;8384663;28;19930;-75
2024/03/24 21:42:15;;;;;;;;;;;6.10;99.90;;;;;;8396355;28;20337;-75
2024/03/24 21:46:16;;;;;;;;;;;6.20;99.90;;;;;;8388382;28;19946;-75
2024/03/24 21:50:17;;;;;;;;;;;6.10;99.90;;;;;;8375321;28;19920;-75
2024/03/24 21:54:18;;;;;;;;;;;6.10;99.90;;;;;;8360416;28;19920;-75
2024/03/24 21:58:18;;;;;;;;;;;6.00;99.90;;;;;;8375655;28;19920;-74
2024/03/24 22:02:19;;;;;;;;;;;6.00;99.90;;;;;;8378828;28;19928;-75
2024/03/24 22:06:21;;;;;;;;;;;5.90;99.90;;;;;;8378424;28;19956;-75
2024/03/24 22:10:21;;;;;;;;;;;5.90;99.90;;;;;;8380519;28;20007;-75
2024/03/24 22:14:22;;;;;;;;;;;5.90;99.90;;;;;;8378459;28;19980;-75
2024/03/24 22:23:27;;;;;;;;;;;5.80;99.90;;;;;;8394374;28;19965;-75
2024/03/24 22:27:28;;;;;;;;;;;5.70;99.90;;;;;;8367789;28;19920;-75
2024/03/24 22:31:28;;;;;;;;;;;5.60;99.90;;;;;;8403656;28;19968;-75
2024/03/24 22:35:30;;;;;;;;;;;5.60;99.90;;;;;;8374013;28;20019;-75
2024/03/24 22:39:31;;;;;;;;;;;5.50;99.90;;;;;;8373339;28;19920;-75
2024/03/24 22:43:32;;;;;;;;;;;5.40;99.90;;;;;;8405539;28;19924;-75
2024/03/24 22:47:33;;;;;;;;;;;5.40;99.90;;;;;;8373649;28;19928;-75
2024/03/24 22:51:34;;;;;;;;;;;5.30;99.90;;;;;;8378346;28;19924;-75
2024/03/24 22:55:35;;;;;;;;;;;5.30;99.90;;;;;;8369826;28;19931;-76
2024/03/24 22:59:36;;;;;;;;;;;5.20;99.90;;;;;;8379275;28;19920;-75
2024/03/24 23:03:36;;;;;;;;;;;5.20;99.90;;;;;;8376841;28;20056;-75
2024/03/24 23:07:38;;;;;;;;;;;5.10;99.90;;;;;;8373143;28;19924;-75
2024/03/24 23:11:39;;;;;;;;;;;5.10;99.90;;;;;;8373856;28;19924;-75
2024/03/24 23:15:40;;;;;;;;;;;5.10;99.90;;;;;;8375445;28;20005;-75
2024/03/24 23:19:41;;;;;;;;;;;5.10;99.90;;;;;;8378618;28;20376;-74
2024/03/24 23:23:41;;;;;;;;;;;5.00;99.90;;;;;;8370824;28;20352;-74
2024/03/24 23:27:42;;;;;;;;;;;5.00;99.90;;;;;;8364344;28;19934;-74
2024/03/24 23:31:43;;;;;;;;;;;5.00;99.90;;;;;;8372091;28;19999;-75
2024/03/24 23:35:44;;;;;;;;;;;5.00;99.90;;;;;;8359599;28;19920;-75
2024/03/24 23:39:45;;;;;;;;;;;4.90;99.90;;;;;;8370193;28;19919;-74
2024/03/24 23:43:45;;;;;;;;;;;4.90;99.90;;;;;;8371274;28;19970;-75
2024/03/24 23:47:53;;;;;;;;;;;4.90;99.90;;;;;;8376295;28;19928;-74
2024/03/24 23:51:54;;;;;;;;;;;4.80;99.90;;;;;;8358893;28;19931;-75
2024/03/24 23:55:54;;;;;;;;;;;4.80;99.90;;;;;;8376014;28;20171;-75
2024/03/24 23:59:55;;;;;;;;;;;4.70;99.90;;;;;;8391466;28;19931;-75
